Time;durP1;ratioP1;P1;durP2;ratioP2;P2;SDS_P1;SDS_P2;PMS_P1;PMS_P2;Temp;Humidity;BMP_temperature;BMP_pressure;BME280_temperature;BME280_humidity;BME280_pressure;Samples;Min_cycle;Max_cycle;Signal;HPM_P1;HPM_P2
2024/01/26 00:02:15;;;;;;;32.45;20.80;;;9.20;99.90;;;;;;5048558;28;20026;-51
2024/01/26 00:04:40;;;;;;;36.03;20.85;;;9.20;99.90;;;;;;5048104;28;20034;-52
2024/01/26 00:07:06;;;;;;;31.75;21.98;;;9.30;99.90;;;;;;5047697;28;20073;-51
2024/01/26 00:09:32;;;;;;;33.40;20.65;;;9.30;99.90;;;;;;5047603;28;20103;-51
2024/01/26 00:11:57;;;;;;;34.65;20.38;;;9.30;99.90;;;;;;5047814;28;20036;-50
2024/01/26 00:14:23;;;;;;;28.70;20.08;;;9.40;99.90;;;;;;5048808;28;20029;-52
2024/01/26 00:16:49;;;;;;;33.28;21.60;;;9.40;99.90;;;;;;5048233;28;20030;-50
2024/01/26 00:19:14;;;;;;;34.28;19.58;;;9.40;99.90;;;;;;5048869;28;20035;-53
2024/01/26 00:21:40;;;;;;;32.90;19.13;;;9.30;99.90;;;;;;5048421;28;20037;-49
2024/01/26 00:24:05;;;;;;;31.95;19.08;;;9.30;99.90;;;;;;5048835;28;20095;-48
2024/01/26 00:26:31;;;;;;;28.42;18.55;;;9.40;99.90;;;;;;5048693;28;20028;-52
2024/01/26 00:28:57;;;;;;;28.05;18.50;;;9.30;99.90;;;;;;5049052;28;20432;-54
2024/01/26 00:31:22;;;;;;;29.98;19.50;;;9.30;99.90;;;;;;5049088;28;20045;-51
2024/01/26 00:33:48;;;;;;;29.15;18.55;;;9.30;99.90;;;;;;5047835;28;20048;-51
2024/01/26 00:36:14;;;;;;;26.30;18.50;;;9.30;99.90;;;;;;5047238;28;20021;-50
2024/01/26 00:38:42;;;;;;;31.95;21.20;;;9.40;99.90;;;;;;5045325;28;20055;-52
2024/01/26 00:41:08;;;;;;;27.92;19.25;;;9.30;99.90;;;;;;5046997;28;20037;-47
2024/01/26 00:43:33;;;;;;;27.60;19.33;;;9.20;99.90;;;;;;5044949;28;20026;-48
2024/01/26 00:45:59;;;;;;;32.38;19.88;;;9.10;99.90;;;;;;5046026;28;20021;-52
2024/01/26 00:48:24;;;;;;;33.95;20.23;;;9.20;99.90;;;;;;5045223;28;20025;-54
2024/01/26 00:50:50;;;;;;;31.35;19.55;;;9.20;99.90;;;;;;5044260;28;20057;-53
2024/01/26 00:53:17;;;;;;;31.00;19.60;;;9.20;99.90;;;;;;5044655;28;20056;-49
2024/01/26 00:55:43;;;;;;;34.60;21.08;;;9.40;99.90;;;;;;5044330;28;20032;-52
2024/01/26 00:58:09;;;;;;;31.77;20.90;;;9.20;99.90;;;;;;5045793;28;20489;-50
2024/01/26 01:00:34;;;;;;;30.95;19.85;;;9.10;99.90;;;;;;5046060;28;20087;-50
2024/01/26 01:03:00;;;;;;;31.48;19.83;;;9.10;99.90;;;;;;5045756;28;20045;-52
2024/01/26 01:05:25;;;;;;;30.15;18.35;;;9.10;99.90;;;;;;5046180;28;20025;-52
2024/01/26 01:07:51;;;;;;;31.20;20.52;;;9.10;99.90;;;;;;5044794;28;20037;-52
2024/01/26 01:10:16;;;;;;;29.83;19.10;;;9.10;99.90;;;;;;5045193;28;20493;-49
2024/01/26 01:12:42;;;;;;;31.58;19.58;;;9.10;99.90;;;;;;5044468;28;20492;-52
2024/01/26 01:15:12;;;;;;;33.35;20.92;;;9.10;99.90;;;;;;5044980;28;20029;-51
2024/01/26 01:17:45;;;;;;;28.38;18.75;;;9.20;99.90;;;;;;5045257;28;20021;-54
2024/01/26 01:20:11;;;;;;;26.73;18.67;;;9.20;99.90;;;;;;5044455;28;20033;-51
2024/01/26 01:22:41;;;;;;;33.95;20.42;;;9.20;99.90;;;;;;5046530;28;20079;-51
2024/01/26 01:25:08;;;;;;;30.38;19.30;;;9.20;99.90;;;;;;5046216;28;20016;-56
2024/01/26 01:27:36;;;;;;;37.45;20.48;;;9.10;99.90;;;;;;5044268;28;20025;-49
2024/01/26 01:30:02;;;;;;;31.48;18.88;;;9.20;99.90;;;;;;5046522;28;20113;-51
2024/01/26 01:32:27;;;;;;;30.35;19.67;;;9.20;99.90;;;;;;5045556;28;20423;-51
2024/01/26 01:34:53;;;;;;;31.33;20.27;;;9.20;99.90;;;;;;5044622;28;20030;-54
2024/01/26 01:37:18;;;;;;;34.20;20.77;;;9.30;99.90;;;;;;5045820;28;20045;-53
2024/01/26 01:39:44;;;;;;;32.38;21.30;;;9.20;99.90;;;;;;5046889;28;20075;-51
2024/01/26 01:42:13;;;;;;;38.83;22.55;;;9.20;99.90;;;;;;5045418;28;20513;-54
2024/01/26 01:44:40;;;;;;;35.28;21.85;;;9.20;99.90;;;;;;5047217;28;20033;-51
2024/01/26 01:47:06;;;;;;;40.63;21.80;;;9.20;99.90;;;;;;5046815;28;20037;-52
2024/01/26 01:49:31;;;;;;;48.35;23.73;;;9.10;99.90;;;;;;5046863;28;20033;-49
2024/01/26 01:51:59;;;;;;;36.55;22.92;;;9.20;99.90;;;;;;5044233;28;20076;-51
2024/01/26 01:54:26;;;;;;;42.85;25.85;;;9.20;99.90;;;;;;5045369;28;20037;-53
2024/01/26 01:56:53;;;;;;;44.53;24.27;;;9.10;99.90;;;;;;5045762;28;20051;-51
2024/01/26 01:59:21;;;;;;;43.10;24.77;;;9.20;99.90;;;;;;5050137;28;20029;-50
2024/01/26 02:01:46;;;;;;;42.83;25.27;;;9.20;99.90;;;;;;5049593;28;20048;-52
2024/01/26 02:04:12;;;;;;;54.28;27.50;;;9.20;99.90;;;;;;5048478;28;20030;-52
2024/01/26 02:06:37;;;;;;;46.00;25.80;;;9.20;99.90;;;;;;5046537;28;20044;-52
2024/01/26 02:09:03;;;;;;;47.17;25.17;;;9.20;99.90;;;;;;5045166;28;20025;-48
2024/01/26 02:11:28;;;;;;;51.75;26.80;;;9.20;99.90;;;;;;5048044;28;20053;-54
2024/01/26 02:13:54;;;;;;;44.83;24.85;;;9.30;99.90;;;;;;5047367;28;20018;-50
2024/01/26 02:16:19;;;;;;;46.17;26.75;;;9.30;99.90;;;;;;5045950;28;20101;-52
2024/01/26 02:18:45;;;;;;;49.13;26.17;;;9.30;99.90;;;;;;5047291;28;20021;-48
2024/01/26 02:21:10;;;;;;;53.22;25.92;;;9.30;99.90;;;;;;5046949;28;20025;-52
2024/01/26 02:23:41;;;;;;;43.67;25.10;;;9.40;99.90;;;;;;5046693;28;20024;-48
2024/01/26 02:26:10;;;;;;;44.67;25.67;;;9.30;99.90;;;;;;5047693;28;20049;-48
2024/01/26 02:28:36;;;;;;;48.60;24.40;;;9.40;99.90;;;;;;5046677;28;20025;-52
2024/01/26 02:31:01;;;;;;;45.50;25.23;;;9.30;99.90;;;;;;5045492;28;20100;-50
2024/01/26 02:33:27;;;;;;;49.05;24.27;;;9.40;99.90;;;;;;5044548;28;20025;-55
2024/01/26 02:35:53;;;;;;;47.75;24.33;;;9.40;99.90;;;;;;5046046;28;20040;-54
2024/01/26 02:38:19;;;;;;;50.05;25.02;;;9.40;99.90;;;;;;5043855;28;20319;-56
2024/01/26 02:40:45;;;;;;;46.47;25.83;;;9.40;99.90;;;;;;5043410;28;20056;-55
2024/01/26 02:43:11;;;;;;;44.80;23.83;;;9.40;99.90;;;;;;5043370;28;20029;-52
2024/01/26 02:45:36;;;;;;;48.38;25.38;;;9.40;99.90;;;;;;5043809;28;20048;-52
2024/01/26 02:48:02;;;;;;;42.83;23.70;;;9.40;99.90;;;;;;5041711;28;20052;-54
2024/01/26 02:50:28;;;;;;;47.25;24.80;;;9.30;99.90;;;;;;5043013;28;20021;-50
2024/01/26 02:52:53;;;;;;;46.15;24.95;;;9.40;99.90;;;;;;5045113;28;20021;-50
2024/01/26 02:55:19;;;;;;;50.72;24.40;;;9.40;99.90;;;;;;5043921;28;20033;-53
2024/01/26 02:57:44;;;;;;;46.30;25.77;;;9.40;99.90;;;;;;5043297;28;20017;-48
2024/01/26 03:00:11;;;;;;;46.92;24.67;;;9.50;99.90;;;;;;5041892;28;20124;-48
2024/01/26 03:02:37;;;;;;;43.83;23.30;;;9.50;99.90;;;;;;5042034;28;20025;-54
2024/01/26 03:05:03;;;;;;;50.22;24.65;;;9.50;99.90;;;;;;5041758;28;20021;-47
2024/01/26 03:07:28;;;;;;;51.40;24.63;;;9.50;99.90;;;;;;5042870;28;20045;-53
2024/01/26 03:09:54;;;;;;;44.05;23.95;;;9.50;99.90;;;;;;5042852;28;20041;-55
2024/01/26 03:12:20;;;;;;;38.33;21.98;;;9.60;99.90;;;;;;5043184;28;20073;-50
2024/01/26 03:14:45;;;;;;;45.47;23.48;;;9.50;99.90;;;;;;5043870;28;20036;-51
2024/01/26 03:17:11;;;;;;;42.22;23.67;;;9.50;99.90;;;;;;5044340;28;20068;-51
2024/01/26 03:19:36;;;;;;;43.15;22.13;;;9.50;99.90;;;;;;5043444;28;20022;-53
2024/01/26 03:22:02;;;;;;;37.78;21.13;;;9.50;99.90;;;;;;5047303;28;20101;-49
2024/01/26 03:24:28;;;;;;;39.00;21.00;;;9.50;99.90;;;;;;5047937;28;20029;-51
2024/01/26 03:26:54;;;;;;;38.35;21.77;;;9.50;99.90;;;;;;5047394;28;20045;-54
2024/01/26 03:29:20;;;;;;;49.33;23.25;;;9.40;99.90;;;;;;5047934;28;20089;-47
2024/01/26 03:31:45;;;;;;;36.83;20.52;;;9.50;99.90;;;;;;5048449;28;20030;-51
2024/01/26 03:34:11;;;;;;;44.28;21.65;;;9.40;99.90;;;;;;5048492;28;20026;-52
2024/01/26 03:36:37;;;;;;;38.92;21.70;;;9.50;99.90;;;;;;5049664;28;20030;-51
2024/01/26 03:39:03;;;;;;;36.85;21.60;;;9.50;99.90;;;;;;5047624;28;20030;-49
2024/01/26 03:41:29;;;;;;;38.85;21.35;;;9.50;99.90;;;;;;5046271;28;20087;-51
2024/01/26 03:43:55;;;;;;;35.75;19.88;;;9.30;99.90;;;;;;5047270;28;20029;-48
2024/01/26 03:46:21;;;;;;;35.78;20.05;;;9.50;99.90;;;;;;5046125;28;20075;-53
2024/01/26 03:48:46;;;;;;;37.03;20.67;;;9.50;99.90;;;;;;5047803;28;20055;-52
2024/01/26 03:51:12;;;;;;;40.50;20.63;;;9.50;99.90;;;;;;5047173;28;20026;-52
2024/01/26 03:53:38;;;;;;;39.88;21.40;;;9.40;99.90;;;;;;5060302;22;20032;-36
2024/01/26 03:56:04;;;;;;;40.22;21.25;;;9.60;99.90;;;;;;5033462;28;20041;-46
2024/01/26 03:58:29;;;;;;;38.40;21.35;;;9.50;99.90;;;;;;5033532;28;20026;-40
2024/01/26 04:00:55;;;;;;;36.67;21.63;;;9.50;99.90;;;;;;5034550;28;20029;-45
2024/01/26 04:03:21;;;;;;;37.17;22.15;;;9.50;99.90;;;;;;5034113;28;20021;-42
2024/01/26 04:05:46;;;;;;;37.42;21.55;;;9.50;99.90;;;;;;5034433;28;20532;-42
2024/01/26 04:08:12;;;;;;;33.08;20.38;;;9.50;99.90;;;;;;5034006;28;20117;-40
2024/01/26 04:10:38;;;;;;;43.47;22.88;;;9.50;99.90;;;;;;5034196;28;20584;-42
2024/01/26 04:13:03;;;;;;;41.72;22.98;;;9.50;99.90;;;;;;5016422;28;20037;-41
2024/01/26 04:15:29;;;;;;;34.55;22.30;;;9.50;99.90;;;;;;5016680;28;20037;-40
2024/01/26 04:17:56;;;;;;;36.35;20.67;;;9.40;99.90;;;;;;5033867;28;20112;-42
2024/01/26 04:20:22;;;;;;;35.05;21.08;;;9.40;99.90;;;;;;5034157;28;20538;-40
2024/01/26 04:22:47;;;;;;;36.05;20.77;;;9.40;99.90;;;;;;5033933;28;20063;-44
2024/01/26 04:25:13;;;;;;;38.30;21.77;;;9.50;99.90;;;;;;5033784;28;20477;-45
2024/01/26 04:27:38;;;;;;;32.25;19.73;;;9.40;99.90;;;;;;5033573;28;20036;-40
2024/01/26 04:30:04;;;;;;;36.38;22.75;;;9.40;99.90;;;;;;5033998;28;20095;-40
2024/01/26 04:32:30;;;;;;;27.58;18.25;;;9.40;99.90;;;;;;5033513;28;20037;-40
2024/01/26 04:34:55;;;;;;;33.90;18.60;;;9.40;99.90;;;;;;5033767;28;20029;-43
2024/01/26 04:37:21;;;;;;;29.35;18.02;;;9.40;99.90;;;;;;5033575;28;20030;-39
2024/01/26 04:39:47;;;;;;;31.35;19.02;;;9.40;99.90;;;;;;5016076;28;20481;-42
2024/01/26 04:42:12;;;;;;;29.15;17.52;;;9.40;99.90;;;;;;5016103;28;20021;-42
2024/01/26 04:44:38;;;;;;;31.00;18.40;;;9.50;99.90;;;;;;5016791;28;20444;-41
2024/01/26 04:47:03;;;;;;;26.17;16.95;;;9.50;99.90;;;;;;5034762;28;20527;-42
2024/01/26 04:49:29;;;;;;;28.02;18.45;;;9.50;99.90;;;;;;5033873;28;20080;-40
2024/01/26 04:51:54;;;;;;;27.95;17.15;;;9.50;99.90;;;;;;5033742;28;20025;-38
2024/01/26 04:54:20;;;;;;;29.08;16.17;;;9.50;99.90;;;;;;5015724;28;20404;-42
2024/01/26 04:56:45;;;;;;;25.42;16.05;;;9.50;99.90;;;;;;5033100;28;20057;-42
2024/01/26 04:59:11;;;;;;;28.98;16.42;;;9.50;99.90;;;;;;5015575;28;20030;-41
2024/01/26 05:01:36;;;;;;;23.77;15.88;;;9.60;99.90;;;;;;5033278;28;20473;-38
2024/01/26 05:04:06;;;;;;;20.83;15.32;;;9.60;99.90;;;;;;5033373;28;20030;-44
2024/01/26 05:06:31;;;;;;;24.42;13.88;;;9.60;99.90;;;;;;5033160;28;20029;-39
2024/01/26 05:08:57;;;;;;;24.13;14.32;;;9.60;99.90;;;;;;5015176;28;20025;-41
2024/01/26 05:11:22;;;;;;;22.02;13.80;;;9.60;99.90;;;;;;5033154;28;20384;-46
2024/01/26 05:13:48;;;;;;;18.52;12.43;;;9.60;99.90;;;;;;5033203;28;20021;-41
2024/01/26 05:16:13;;;;;;;20.80;12.00;;;9.60;99.90;;;;;;5033370;28;20025;-42
2024/01/26 05:18:39;;;;;;;19.17;13.93;;;9.70;99.90;;;;;;5032895;28;20044;-41
2024/01/26 05:21:04;;;;;;;19.95;12.70;;;9.60;99.90;;;;;;5033037;28;20025;-42
2024/01/26 05:23:30;;;;;;;18.73;12.48;;;9.60;99.90;;;;;;5032827;28;20028;-43
2024/01/26 05:25:56;;;;;;;19.35;12.13;;;9.60;99.90;;;;;;5032890;28;20029;-44
2024/01/26 05:28:22;;;;;;;19.42;11.27;;;9.50;99.90;;;;;;5032577;28;20017;-40
2024/01/26 05:30:47;;;;;;;15.68;11.02;;;9.60;99.90;;;;;;5032860;28;20029;-41
2024/01/26 05:33:13;;;;;;;18.60;11.43;;;9.60;99.90;;;;;;5032770;28;20030;-43
2024/01/26 05:35:39;;;;;;;13.95;10.60;;;9.60;99.90;;;;;;5032687;28;20470;-42
2024/01/26 05:38:04;;;;;;;12.13;9.45;;;9.60;99.90;;;;;;5032326;28;20037;-42
2024/01/26 05:40:30;;;;;;;14.18;9.65;;;9.60;99.90;;;;;;5032168;28;20034;-41
2024/01/26 05:42:55;;;;;;;13.48;9.13;;;9.60;99.90;;;;;;5014548;28;20029;-44
2024/01/26 05:45:21;;;;;;;12.32;8.27;;;9.60;99.90;;;;;;5032094;28;20049;-43
2024/01/26 05:47:47;;;;;;;14.13;8.00;;;9.60;99.90;;;;;;5032378;28;20033;-41
2024/01/26 05:50:14;;;;;;;13.35;7.32;;;9.60;99.90;;;;;;5032543;28;20115;-41
2024/01/26 05:52:41;;;;;;;10.68;7.38;;;9.60;99.90;;;;;;5032572;28;20159;-43
2024/01/26 05:55:07;;;;;;;8.82;7.25;;;9.60;99.90;;;;;;5032304;28;20583;-43
2024/01/26 05:57:33;;;;;;;9.82;6.70;;;9.60;99.90;;;;;;5032129;28;20500;-41
2024/01/26 05:59:59;;;;;;;11.07;5.97;;;9.60;99.90;;;;;;5032435;28;20026;-40
2024/01/26 06:02:24;;;;;;;8.65;6.13;;;9.70;99.90;;;;;;5032181;28;20460;-43
2024/01/26 06:04:50;;;;;;;7.85;6.18;;;9.70;99.90;;;;;;5014707;28;20048;-41
2024/01/26 06:07:15;;;;;;;7.68;5.78;;;9.70;99.90;;;;;;5032119;28;20401;-37
2024/01/26 06:09:41;;;;;;;6.40;5.80;;;9.70;99.90;;;;;;5032581;28;20025;-41
2024/01/26 06:12:06;;;;;;;6.53;5.32;;;9.70;99.90;;;;;;5032385;28;20458;-41
2024/01/26 06:14:32;;;;;;;8.02;5.60;;;9.70;99.90;;;;;;5032151;28;20116;-40
2024/01/26 06:16:57;;;;;;;5.10;4.60;;;9.70;99.90;;;;;;5032235;28;20041;-41
2024/01/26 06:19:23;;;;;;;4.85;4.40;;;9.70;99.90;;;;;;5032544;28;20026;-41
2024/01/26 06:21:49;;;;;;;6.75;5.20;;;9.80;99.90;;;;;;5032177;28;20028;-41
2024/01/26 06:24:14;;;;;;;5.65;4.22;;;9.80;99.90;;;;;;5031952;28;20351;-39
2024/01/26 06:26:40;;;;;;;4.57;4.13;;;9.80;99.90;;;;;;5031652;28;20061;-41
2024/01/26 06:29:05;;;;;;;8.00;4.93;;;9.70;99.90;;;;;;5014056;28;20083;-41
2024/01/26 06:31:31;;;;;;;7.55;4.07;;;9.70;99.90;;;;;;5031850;28;20525;-41
2024/01/26 06:33:56;;;;;;;4.88;3.95;;;9.70;99.90;;;;;;5031750;28;20033;-42
2024/01/26 06:36:22;;;;;;;6.55;4.30;;;9.70;99.90;;;;;;5031531;28;20477;-37
2024/01/26 06:38:47;;;;;;;9.45;4.07;;;9.70;99.90;;;;;;5031463;28;20095;-45
2024/01/26 06:41:13;;;;;;;4.40;3.55;;;9.70;99.90;;;;;;5031714;28;20022;-40
2024/01/26 06:43:38;;;;;;;4.45;3.80;;;9.60;99.90;;;;;;5031650;28;20037;-41
2024/01/26 06:46:04;;;;;;;5.43;4.05;;;9.70;99.90;;;;;;5031901;28;20026;-42
2024/01/26 06:48:29;;;;;;;3.63;3.33;;;9.70;99.90;;;;;;5031183;28;20076;-45
2024/01/26 06:50:55;;;;;;;4.07;3.50;;;9.80;99.90;;;;;;5031221;28;20022;-39
2024/01/26 06:53:21;;;;;;;5.88;3.80;;;9.80;99.90;;;;;;5031742;28;20032;-42
2024/01/26 06:55:47;;;;;;;4.90;3.53;;;9.80;99.90;;;;;;5031083;28;20037;-41
2024/01/26 06:58:13;;;;;;;7.63;4.28;;;9.80;99.90;;;;;;5030948;28;20022;-42
2024/01/26 07:00:38;;;;;;;4.88;3.33;;;9.80;99.90;;;;;;5013359;28;20026;-44
2024/01/26 07:03:04;;;;;;;5.75;3.83;;;9.70;99.90;;;;;;5031338;28;20341;-42
2024/01/26 07:05:29;;;;;;;4.72;3.75;;;9.70;99.90;;;;;;5031246;28;20032;-43
2024/01/26 07:07:56;;;;;;;4.15;3.75;;;9.70;99.90;;;;;;5030856;28;20026;-45
2024/01/26 07:10:22;;;;;;;6.68;3.92;;;9.80;99.90;;;;;;5031205;28;20108;-42
2024/01/26 07:12:48;;;;;;;5.65;3.70;;;9.70;99.90;;;;;;5013426;28;20068;-41
2024/01/26 07:15:14;;;;;;;6.22;4.30;;;9.70;99.90;;;;;;5031250;28;20053;-43
2024/01/26 07:17:39;;;;;;;4.57;4.15;;;9.80;99.90;;;;;;5031075;28;20036;-41
2024/01/26 07:20:06;;;;;;;5.47;4.50;;;9.70;99.90;;;;;;5031215;28;20037;-43
2024/01/26 07:22:31;;;;;;;5.80;4.45;;;9.70;99.90;;;;;;5030998;28;20059;-42
2024/01/26 07:24:57;;;;;;;5.32;4.82;;;9.80;99.90;;;;;;5031282;28;20033;-41
2024/01/26 07:27:22;;;;;;;5.40;4.90;;;9.70;99.90;;;;;;5030725;28;20029;-41
2024/01/26 07:29:48;;;;;;;8.95;5.68;;;9.70;99.90;;;;;;5031160;28;20032;-41
2024/01/26 07:32:14;;;;;;;7.35;5.13;;;9.70;99.90;;;;;;5031527;28;20109;-41
2024/01/26 07:34:40;;;;;;;8.68;5.53;;;9.70;99.90;;;;;;5030955;28;20049;-43
2024/01/26 07:37:05;;;;;;;5.85;5.35;;;9.70;99.90;;;;;;5030208;28;20088;-40
2024/01/26 07:39:31;;;;;;;8.57;5.43;;;9.70;99.90;;;;;;5030951;28;20079;-41
2024/01/26 07:41:56;;;;;;;6.32;4.80;;;9.70;99.90;;;;;;5030845;28;20097;-41
2024/01/26 07:44:22;;;;;;;7.53;5.28;;;9.70;99.90;;;;;;5013469;28;20024;-40
2024/01/26 07:46:47;;;;;;;6.22;4.82;;;9.70;99.90;;;;;;5013225;28;20524;-40
2024/01/26 07:49:13;;;;;;;7.32;4.60;;;9.70;99.90;;;;;;5030752;28;20021;-42
2024/01/26 07:51:38;;;;;;;6.32;4.90;;;9.70;99.90;;;;;;5030918;28;20025;-46
2024/01/26 07:54:05;;;;;;;5.32;4.57;;;9.70;99.90;;;;;;5029939;28;20025;-46
2024/01/26 07:56:30;;;;;;;7.45;5.10;;;9.80;99.90;;;;;;5029493;28;20072;-43
2024/01/26 07:58:56;;;;;;;6.93;5.03;;;9.80;99.90;;;;;;5031362;28;20033;-43
2024/01/26 08:01:21;;;;;;;5.25;4.55;;;9.90;99.90;;;;;;5011943;28;20033;-43
2024/01/26 08:03:47;;;;;;;5.50;4.85;;;9.90;99.90;;;;;;5030293;28;20030;-45
2024/01/26 08:06:13;;;;;;;6.50;5.45;;;9.90;99.90;;;;;;5013007;28;20071;-43
2024/01/26 08:08:38;;;;;;;5.95;5.35;;;9.90;99.90;;;;;;5033898;28;20485;-42
2024/01/26 08:11:04;;;;;;;9.40;5.88;;;10.00;99.90;;;;;;5040462;28;20047;-42
2024/01/26 08:13:29;;;;;;;7.95;6.07;;;10.00;99.90;;;;;;5021870;28;20028;-42
2024/01/26 08:15:55;;;;;;;6.45;5.18;;;9.90;99.90;;;;;;5015394;28;20035;-46
2024/01/26 08:18:21;;;;;;;7.57;6.40;;;9.90;99.90;;;;;;5034425;28;20500;-44
2024/01/26 08:20:47;;;;;;;7.22;6.13;;;10.00;99.90;;;;;;5033598;28;20037;-44
2024/01/26 08:23:12;;;;;;;8.10;5.40;;;9.90;99.90;;;;;;5033812;28;20312;-41
2024/01/26 08:25:38;;;;;;;6.00;5.40;;;10.00;99.90;;;;;;5033103;28;20072;-42
2024/01/26 08:28:03;;;;;;;5.85;5.15;;;10.10;99.90;;;;;;5033345;28;20400;-45
2024/01/26 08:30:29;;;;;;;6.10;5.50;;;10.00;99.90;;;;;;5033781;28;20037;-42
2024/01/26 08:32:54;;;;;;;10.30;5.47;;;10.00;99.90;;;;;;5033721;28;20036;-44
2024/01/26 08:35:20;;;;;;;6.50;5.47;;;;;;;;;;5033256;28;20025;-40
2024/01/26 08:37:46;;;;;;;5.60;4.95;;;;;;;;;;5033369;28;20029;-43
2024/01/26 08:40:13;;;;;;;5.60;4.63;;;10.30;99.90;;;;;;5034032;28;20476;-45
2024/01/26 08:42:39;;;;;;;6.25;4.93;;;10.10;99.90;;;;;;5033726;28;20045;-42
2024/01/26 08:45:05;;;;;;;6.05;4.75;;;10.10;99.90;;;;;;5033581;28;20018;-44
2024/01/26 08:47:30;;;;;;;12.80;7.72;;;10.10;99.90;;;;;;5032948;28;20014;-42
2024/01/26 08:49:56;;;;;;;21.17;14.32;;;10.10;99.90;;;;;;5033607;28;20156;-48
2024/01/26 08:52:21;;;;;;;5.22;4.72;;;10.10;99.90;;;;;;5015818;28;20048;-42
2024/01/26 08:54:47;;;;;;;5.55;4.35;;;10.20;99.90;;;;;;5033284;28;20037;-42
2024/01/26 08:57:13;;;;;;;6.22;3.97;;;10.20;99.90;;;;;;5033411;28;20035;-48
2024/01/26 08:59:40;;;;;;;5.32;4.22;;;10.20;99.90;;;;;;5033178;28;20035;-42
2024/01/26 09:02:07;;;;;;;5.05;4.50;;;10.20;99.90;;;;;;5033100;28;20025;-45
2024/01/26 09:04:32;;;;;;;4.60;4.20;;;10.20;99.90;;;;;;5033175;28;20547;-42
2024/01/26 09:06:58;;;;;;;6.57;5.40;;;10.20;99.90;;;;;;5033133;28;20021;-43
2024/01/26 09:09:23;;;;;;;7.07;4.85;;;10.30;99.90;;;;;;5033218;28;20055;-42
2024/01/26 09:11:50;;;;;;;4.57;4.18;;;10.30;99.90;;;;;;5033011;28;20076;-43
2024/01/26 09:14:16;;;;;;;5.50;4.45;;;10.30;99.90;;;;;;5015255;28;20029;-47
2024/01/26 09:16:42;;;;;;;4.82;4.35;;;10.30;99.90;;;;;;5033117;28;20417;-41
2024/01/26 09:19:08;;;;;;;6.90;4.05;;;10.30;99.90;;;;;;5033121;28;20065;-43
2024/01/26 09:21:33;;;;;;;4.15;3.72;;;10.30;99.90;;;;;;5033087;28;20542;-43
2024/01/26 09:23:59;;;;;;;5.18;4.05;;;10.30;99.90;;;;;;5032842;28;20029;-44
2024/01/26 09:26:25;;;;;;;4.40;4.00;;;10.40;99.90;;;;;;5032585;28;20026;-43
2024/01/26 09:28:50;;;;;;;7.15;4.65;;;10.40;99.90;;;;;;5032341;28;20025;-41
2024/01/26 09:31:17;;;;;;;3.72;3.00;;;10.30;99.90;;;;;;5033007;28;20025;-43
2024/01/26 09:33:43;;;;;;;5.28;3.50;;;10.30;99.90;;;;;;5033284;28;20061;-41
2024/01/26 09:36:08;;;;;;;4.65;3.85;;;10.40;99.90;;;;;;5032909;28;20034;-43
2024/01/26 09:38:34;;;;;;;4.93;3.55;;;10.40;99.90;;;;;;5032456;28;20034;-43
2024/01/26 09:40:59;;;;;;;10.75;3.72;;;10.40;99.90;;;;;;5013978;28;20026;-41
2024/01/26 09:43:25;;;;;;;3.80;3.50;;;10.50;99.90;;;;;;5032481;28;20448;-51
2024/01/26 09:45:53;;;;;;;8.40;4.05;;;10.50;99.90;;;;;;5032540;28;20028;-42
2024/01/26 09:48:20;;;;;;;7.97;4.53;;;10.40;99.90;;;;;;5032104;28;20018;-44
2024/01/26 09:50:51;;;;;;;7.72;3.88;;;10.40;99.90;;;;;;5032551;28;20030;-43
2024/01/26 09:53:17;;;;;;;5.75;4.30;;;10.40;99.90;;;;;;5033072;28;20497;-43
2024/01/26 09:55:45;;;;;;;6.35;4.57;;;10.40;99.90;;;;;;5015198;28;20029;-42
2024/01/26 09:58:11;;;;;;;5.00;3.72;;;10.40;99.90;;;;;;5032432;28;20033;-46
2024/01/26 10:00:36;;;;;;;4.60;3.60;;;10.40;99.90;;;;;;5031316;28;20029;-45
2024/01/26 10:03:02;;;;;;;4.32;3.75;;;10.40;99.90;;;;;;5032335;28;20022;-42
2024/01/26 10:05:28;;;;;;;5.50;3.83;;;10.40;99.90;;;;;;5031870;28;20025;-41
2024/01/26 10:07:54;;;;;;;5.95;3.90;;;10.40;99.90;;;;;;5031277;28;20042;-42
2024/01/26 10:10:19;;;;;;;5.28;3.83;;;10.40;99.90;;;;;;5031603;28;20552;-44
2024/01/26 10:12:45;;;;;;;4.93;3.92;;;10.40;99.90;;;;;;5032095;28;20130;-47
2024/01/26 10:15:11;;;;;;;6.93;4.30;;;10.40;99.90;;;;;;5031690;28;20096;-43
2024/01/26 10:17:37;;;;;;;5.00;3.92;;;10.30;99.90;;;;;;5031444;28;20185;-39
2024/01/26 10:20:14;;;;;;;3.70;3.38;;;10.30;99.90;;;;;;5032781;28;20080;-40
2024/01/26 10:22:41;;;;;;;17.48;9.88;;;10.30;99.90;;;;;;5037450;28;20100;-40
2024/01/26 10:25:10;;;;;;;64.15;33.47;;;10.20;99.90;;;;;;5037493;28;20106;-40
2024/01/26 10:27:36;;;;;;;7.82;4.90;;;10.20;99.90;;;;;;5013654;28;20021;-40
2024/01/26 10:30:03;;;;;;;7.38;4.03;;;10.20;99.90;;;;;;5031283;28;20033;-43
2024/01/26 10:32:30;;;;;;;5.68;4.47;;;10.20;99.90;;;;;;5031608;28;20053;-41
2024/01/26 10:35:03;;;;;;;5.22;3.42;;;10.20;99.90;;;;;;5013903;28;20041;-40
2024/01/26 10:37:31;;;;;;;5.20;4.20;;;10.20;99.90;;;;;;5031497;28;20042;-44
2024/01/26 10:39:58;;;;;;;5.32;4.20;;;10.30;99.90;;;;;;5031904;28;20036;-41
2024/01/26 10:42:26;;;;;;;4.90;4.40;;;10.30;99.90;;;;;;5031917;28;20049;-44
2024/01/26 10:44:53;;;;;;;4.97;3.97;;;10.30;99.90;;;;;;5031061;28;20026;-40
2024/01/26 10:47:20;;;;;;;8.13;4.05;;;10.30;99.90;;;;;;5030699;28;20465;-39
2024/01/26 10:49:49;;;;;;;5.32;3.95;;;10.30;99.90;;;;;;5030928;28;20112;-42
2024/01/26 10:52:20;;;;;;;4.10;3.67;;;10.40;99.90;;;;;;5030533;28;20029;-40
2024/01/26 10:54:47;;;;;;;5.25;3.63;;;10.40;99.90;;;;;;5031172;28;20048;-41
2024/01/26 10:57:13;;;;;;;4.43;3.08;;;10.40;99.90;;;;;;5030994;28;20038;-41
2024/01/26 10:59:40;;;;;;;3.20;3.00;;;10.50;99.90;;;;;;5013322;28;20196;-40
2024/01/26 11:02:10;;;;;;;4.72;3.35;;;10.50;99.90;;;;;;5030806;28;20078;-41
2024/01/26 11:04:40;;;;;;;3.10;2.83;;;10.60;99.90;;;;;;5030936;28;20030;-40
2024/01/26 11:07:07;;;;;;;4.40;2.75;;;10.60;99.90;;;;;;5030732;28;20023;-41
2024/01/26 11:09:35;;;;;;;3.33;3.05;;;10.60;99.90;;;;;;5013014;28;20026;-41
2024/01/26 11:12:02;;;;;;;3.28;3.08;;;10.60;99.90;;;;;;5031195;28;20444;-42
2024/01/26 11:14:31;;;;;;;3.80;3.15;;;10.70;99.90;;;;;;5030801;28;20465;-43
2024/01/26 11:17:08;;;;;;;4.30;3.35;;;10.70;99.90;;;;;;5031082;28;20026;-41
2024/01/26 11:19:34;;;;;;;4.45;3.22;;;10.70;99.90;;;;;;5031051;28;20084;-38
2024/01/26 11:22:04;;;;;;;6.32;3.17;;;10.80;99.90;;;;;;5031138;28;20100;-43
2024/01/26 11:24:32;;;;;;;2.65;2.45;;;10.80;99.90;;;;;;5030944;28;20017;-43
2024/01/26 11:27:01;;;;;;;4.10;2.33;;;10.70;99.90;;;;;;5031038;28;20017;-40
2024/01/26 11:29:32;;;;;;;3.25;2.67;;;10.70;99.90;;;;;;5013447;28;20113;-41
2024/01/26 11:31:57;;;;;;;5.28;2.60;;;10.80;99.90;;;;;;5031720;28;20072;-42
2024/01/26 11:34:23;;;;;;;3.92;2.33;;;10.90;99.90;;;;;;5031358;28;20461;-42
2024/01/26 11:37:05;;;;;;;2.50;2.30;;;10.90;99.90;;;;;;5013580;28;20044;-40
2024/01/26 11:39:32;;;;;;;3.40;2.35;;;11.00;99.90;;;;;;5031650;28;20045;-46
2024/01/26 11:41:58;;;;;;;2.10;2.00;;;11.00;99.90;;;;;;5016133;28;20029;-42
2024/01/26 11:44:30;;;;;;;2.30;2.20;;;11.10;99.90;;;;;;5018863;28;20092;-43
2024/01/26 11:46:55;;;;;;;2.22;2.00;;;11.20;99.90;;;;;;5035698;28;20014;-42
2024/01/26 11:49:21;;;;;;;2.38;1.80;;;11.30;99.90;;;;;;5035102;28;20013;-43
2024/01/26 11:51:47;;;;;;;1.70;1.60;;;11.40;99.90;;;;;;5018066;28;20076;-43
2024/01/26 11:54:12;;;;;;;1.45;1.35;;;11.50;99.90;;;;;;5035440;28;20037;-43
2024/01/26 11:56:38;;;;;;;1.42;1.33;;;11.60;99.90;;;;;;5034645;28;20429;-42
2024/01/26 11:59:05;;;;;;;1.30;1.20;;;11.60;99.90;;;;;;5034314;28;20031;-45
2024/01/26 12:01:31;;;;;;;1.00;1.00;;;11.70;99.90;;;;;;5034921;28;20033;-46
2024/01/26 12:03:56;;;;;;;0.88;0.88;;;11.70;99.90;;;;;;5034182;28;20033;-40
2024/01/26 12:06:22;;;;;;;1.48;0.90;;;11.80;99.90;;;;;;5034372;28;20053;-43
2024/01/26 12:08:48;;;;;;;1.33;1.25;;;11.90;99.90;;;;;;5016170;28;20401;-41
2024/01/26 12:11:13;;;;;;;0.80;0.80;;;11.90;99.90;;;;;;5034195;28;20450;-46
2024/01/26 12:13:39;;;;;;;1.00;1.00;;;12.00;99.90;;;;;;5034117;28;20037;-42
2024/01/26 12:16:06;;;;;;;2.30;0.77;;;12.00;99.90;;;;;;5016831;28;20424;-42
2024/01/26 12:18:31;;;;;;;0.80;0.80;;;12.10;99.90;;;;;;5033894;28;20018;-42
2024/01/26 12:20:57;;;;;;;1.02;1.00;;;12.10;99.90;;;;;;5016173;28;20052;-44
2024/01/26 12:23:23;;;;;;;1.00;1.00;;;12.10;99.90;;;;;;5033831;28;20036;-43
2024/01/26 12:25:52;;;;;;;0.70;0.70;;;12.20;99.90;;;;;;5034214;28;20443;-41
2024/01/26 12:28:19;;;;;;;0.80;0.80;;;12.20;99.90;;;;;;5016051;28;20127;-47
2024/01/26 12:30:45;;;;;;;0.60;0.60;;;12.20;99.90;;;;;;5016405;28;20061;-41
2024/01/26 12:33:11;;;;;;;0.50;0.50;;;12.20;99.90;;;;;;5035301;28;20117;-40
2024/01/26 12:35:40;;;;;;;0.70;0.70;;;12.30;99.90;;;;;;5036603;28;20044;-47
2024/01/26 12:38:07;;;;;;;0.63;0.63;;;12.20;99.90;;;;;;5036731;28;20119;-40
2024/01/26 12:40:33;;;;;;;0.70;0.70;;;12.30;99.90;;;;;;5036215;28;20029;-41